createdAt,value
2024-01-15T00:01:12.000Z,2.26
2024-01-15T00:04:17.641Z,2.29
2024-01-15T00:07:48.991Z,2.16
2024-01-15T00:10:50.855Z,2.05
2024-01-15T00:14:09.333Z,2.17
2024-01-15T00:17:22.539Z,2.04
2024-01-15T00:20:33.599Z,1.95
2024-01-15T00:23:40.968Z,2.00
2024-01-15T00:27:15.362Z,2.10
2024-01-15T00:30:49.772Z,2.06
2024-01-15T00:34:24.594Z,2.31
2024-01-15T00:38:05.745Z,2.39
2024-01-15T00:41:33.651Z,2.18
2024-01-15T00:44:43.925Z,2.20
2024-01-15T00:48:04.797Z,2.27
2024-01-15T00:51:39.391Z,2.00
2024-01-15T00:54:47.951Z,2.20
2024-01-15T00:57:56.394Z,1.92
2024-01-15T01:01:03.196Z,2.02
2024-01-15T01:04:24.595Z,1.71
2024-01-15T01:11:29.280Z,1.71
2024-01-15T01:18:19.963Z,1.85
2024-01-15T01:21:44.755Z,1.82
2024-01-15T01:24:40.944Z,1.79
2024-01-15T01:27:48.185Z,1.63
2024-01-15T01:31:03.685Z,1.52
2024-01-15T01:34:34.965Z,1.54
2024-01-15T01:37:43.200Z,1.52
2024-01-15T01:40:59.035Z,1.48
2024-01-15T01:44:16.357Z,1.44
2024-01-15T01:47:42.976Z,1.61
2024-01-15T01:50:56.785Z,1.64
2024-01-15T01:54:18.656Z,1.70
2024-01-15T01:57:37.895Z,1.45
2024-01-15T02:00:58.868Z,1.47
2024-01-15T02:04:12.971Z,1.47
2024-01-15T02:07:19.324Z,1.61
2024-01-15T02:10:38.103Z,1.43
2024-01-15T02:14:16.133Z,1.55
2024-01-15T02:17:39.707Z,1.73
2024-01-15T02:21:17.247Z,1.68
2024-01-15T02:24:33.785Z,1.66
2024-01-15T02:27:50.025Z,1.65
2024-01-15T02:31:09.557Z,1.47
2024-01-15T02:34:30.912Z,1.30
2024-01-15T02:37:54.014Z,1.62
2024-01-15T02:41:08.053Z,1.46
2024-01-15T02:44:10.621Z,1.43
2024-01-15T02:47:20.009Z,1.62
2024-01-15T02:50:40.035Z,1.50
2024-01-15T02:53:35.018Z,1.68
2024-01-15T02:56:29.915Z,1.58
2024-01-15T03:04:49.241Z,1.82
2024-01-15T03:07:53.382Z,1.79
2024-01-15T03:11:18.181Z,1.85
2024-01-15T03:21:06.995Z,1.62
2024-01-15T03:24:35.736Z,1.81
2024-01-15T03:35:37.926Z,1.75
2024-01-15T03:38:58.508Z,1.71
2024-01-15T03:42:45.930Z,1.69
2024-01-15T03:46:28.653Z,1.76
2024-01-15T03:49:43.430Z,1.64
2024-01-15T03:56:06.735Z,1.74
2024-01-15T03:59:37.631Z,1.59
2024-01-15T04:02:32.005Z,1.70
2024-01-15T04:05:27.405Z,1.64
2024-01-15T04:08:50.410Z,1.62
2024-01-15T04:11:57.132Z,1.35
2024-01-15T04:22:31.577Z,1.58
2024-01-15T04:25:56.915Z,1.68
2024-01-15T04:32:37.692Z,1.35
2024-01-15T04:39:15.911Z,1.58
2024-01-15T04:45:31.728Z,1.51
2024-01-15T04:49:11.794Z,1.69
2024-01-15T04:56:07.254Z,1.82
2024-01-15T04:59:31.105Z,1.61
2024-01-15T05:03:01.945Z,1.77
2024-01-15T05:06:37.839Z,1.84
2024-01-15T05:09:45.565Z,1.80
2024-01-15T05:12:32.823Z,1.95
2024-01-15T05:16:01.994Z,1.80
2024-01-15T05:20:02.891Z,1.77
2024-01-15T05:23:51.947Z,1.89
2024-01-15T05:27:21.266Z,1.81
2024-01-15T05:34:12.589Z,1.69
2024-01-15T05:37:24.413Z,1.47
2024-01-15T05:40:42.638Z,1.33
2024-01-15T05:44:50.510Z,1.62
2024-01-15T05:47:52.389Z,1.27
2024-01-15T05:58:50.664Z,1.66
2024-01-15T06:02:07.916Z,1.68
2024-01-15T06:08:56.919Z,1.57
2024-01-15T06:12:10.684Z,1.62
2024-01-15T06:15:28.877Z,1.60
2024-01-15T06:18:50.341Z,1.73
2024-01-15T06:21:48.124Z,1.82
2024-01-15T06:28:51.863Z,1.67
2024-01-15T06:31:44.558Z,1.74
2024-01-15T06:34:57.601Z,1.98
2024-01-15T06:38:19.107Z,1.84
2024-01-15T06:44:43.515Z,2.13
2024-01-15T06:56:40.252Z,1.95
2024-01-15T06:59:49.245Z,2.35
2024-01-15T07:03:00.048Z,2.55
2024-01-15T07:06:25.892Z,2.56
2024-01-15T07:09:53.163Z,2.45
2024-01-15T07:24:19.362Z,2.84
2024-01-15T07:27:28.727Z,2.86
2024-01-15T07:42:35.438Z,2.94
2024-01-15T07:58:17.233Z,3.56
2024-01-15T08:01:47.324Z,3.50
2024-01-15T08:04:47.437Z,3.57
2024-01-15T08:19:42.883Z,3.49
2024-01-15T08:26:54.252Z,3.70
2024-01-15T08:30:19.531Z,3.82
2024-01-15T08:38:00.056Z,3.88
2024-01-15T08:41:42.892Z,3.86
2024-01-15T08:44:48.016Z,3.90
2024-01-15T08:48:36.775Z,3.86
2024-01-15T08:51:28.752Z,3.85
2024-01-15T08:58:25.853Z,3.72
2024-01-15T09:10:19.982Z,4.06
2024-01-15T09:14:33.170Z,3.93
2024-01-15T09:17:36.866Z,4.16
2024-01-15T09:21:06.509Z,4.37
2024-01-15T09:24:39.259Z,3.90
2024-01-15T09:34:54.743Z,3.55
2024-01-15T09:38:01.214Z,3.73
2024-01-15T09:41:11.703Z,3.81
2024-01-15T09:44:21.508Z,4.00
2024-01-15T09:48:02.866Z,3.71
2024-01-15T09:51:36.475Z,3.82
2024-01-15T09:54:43.985Z,3.93
2024-01-15T09:58:16.547Z,4.18
2024-01-15T10:01:37.026Z,4.16
2024-01-15T10:13:09.921Z,4.18
2024-01-15T10:20:28.348Z,4.83
2024-01-15T10:27:57.864Z,4.77
2024-01-15T10:31:30.945Z,5.12
2024-01-15T10:34:46.399Z,5.23
2024-01-15T10:41:05.028Z,5.20
2024-01-15T10:44:26.627Z,4.97
2024-01-15T10:47:34.296Z,5.30
2024-01-15T10:50:55.300Z,5.67
2024-01-15T10:54:21.121Z,6.16
2024-01-15T10:57:29.151Z,6.09
2024-01-15T11:00:30.151Z,6.38
2024-01-15T11:03:20.948Z,6.34
2024-01-15T11:06:25.162Z,6.64
2024-01-15T11:09:26.719Z,6.41
2024-01-15T11:12:15.140Z,6.34
2024-01-15T11:15:23.443Z,6.39
2024-01-15T11:18:49.865Z,6.60
2024-01-15T11:22:09.593Z,6.67
2024-01-15T11:25:22.937Z,6.40
2024-01-15T11:28:59.766Z,6.60
2024-01-15T11:32:35.179Z,6.72
2024-01-15T11:40:03.124Z,6.69
2024-01-15T11:43:39.479Z,6.73
2024-01-15T11:50:33.925Z,6.25
2024-01-15T11:58:36.487Z,6.22
2024-01-15T12:04:41.075Z,5.98
2024-01-15T12:07:32.946Z,5.86
2024-01-15T12:10:28.725Z,5.99
2024-01-15T12:17:25.989Z,5.74
2024-01-15T12:20:44.854Z,5.60
2024-01-15T12:23:40.848Z,5.54
2024-01-15T12:26:41.701Z,5.84
2024-01-15T12:29:55.890Z,5.26
2024-01-15T12:32:57.590Z,5.17
2024-01-15T12:36:00.783Z,5.35
2024-01-15T12:45:42.507Z,5.19
2024-01-15T12:48:57.665Z,4.81
2024-01-15T12:52:33.332Z,4.75
2024-01-15T12:55:43.469Z,4.79
2024-01-15T12:58:44.548Z,5.13
2024-01-15T13:01:40.344Z,5.21
2024-01-15T13:04:58.865Z,5.36
2024-01-15T13:07:57.171Z,5.20
2024-01-15T13:14:49.274Z,4.91
2024-01-15T13:17:52.079Z,4.97
2024-01-15T13:20:57.837Z,4.53
2024-01-15T13:24:21.285Z,4.69
2024-01-15T13:27:43.670Z,4.59
2024-01-15T13:31:11.028Z,4.68
2024-01-15T13:34:24.031Z,4.62
2024-01-15T13:38:13.077Z,4.44
2024-01-15T13:41:11.544Z,4.39
2024-01-15T13:44:35.075Z,4.38
2024-01-15T13:47:58.950Z,4.58
2024-01-15T13:50:54.853Z,4.57
2024-01-15T13:53:48.941Z,4.49
2024-01-15T13:56:59.968Z,4.50
2024-01-15T13:59:53.742Z,4.39
2024-01-15T14:10:56.773Z,4.28
2024-01-15T14:13:58.060Z,4.35
2024-01-15T14:17:07.004Z,4.36
2024-01-15T14:20:23.078Z,4.40
2024-01-15T14:23:50.485Z,4.09
2024-01-15T14:27:01.578Z,4.03
2024-01-15T14:33:47.916Z,3.87
2024-01-15T14:40:25.089Z,3.58
2024-01-15T14:43:42.466Z,3.52
2024-01-15T14:50:47.638Z,3.61
2024-01-15T14:58:15.394Z,3.57
2024-01-15T15:01:46.397Z,3.44
2024-01-15T15:09:37.617Z,3.44
2024-01-15T15:12:53.281Z,3.32
2024-01-15T15:19:37.107Z,3.18
2024-01-15T15:23:04.622Z,3.41
2024-01-15T15:26:27.524Z,3.20
2024-01-15T15:33:09.592Z,3.19
2024-01-15T15:36:06.802Z,3.25
2024-01-15T15:39:13.472Z,3.28
2024-01-15T15:42:30.918Z,3.28
2024-01-15T15:45:27.674Z,3.31
2024-01-15T15:48:59.722Z,3.56
2024-01-15T15:52:29.371Z,3.44
2024-01-15T15:55:39.986Z,3.33
2024-01-15T15:59:01.596Z,3.44
2024-01-15T16:02:02.940Z,3.60
2024-01-15T16:05:13.948Z,3.50
2024-01-15T16:13:39.948Z,3.74
2024-01-15T16:23:12.928Z,3.70
2024-01-15T16:23:29.213Z,3.58
2024-01-15T16:24:04.211Z,3.53
2024-01-15T16:26:49.483Z,3.38
2024-01-15T16:29:46.311Z,3.23
2024-01-15T16:33:04.284Z,3.27
2024-01-15T16:36:08.845Z,3.39
2024-01-15T16:39:30.474Z,3.41
2024-01-15T16:42:47.011Z,3.34
2024-01-15T16:46:01.808Z,3.29
2024-01-15T16:49:03.244Z,3.25
2024-01-15T16:52:13.302Z,3.24
2024-01-15T16:58:48.984Z,3.19
2024-01-15T17:02:06.074Z,3.13
2024-01-15T17:05:25.527Z,3.19
2024-01-15T17:08:40.135Z,3.02
2024-01-15T17:11:55.967Z,3.19
2024-01-15T17:15:04.686Z,3.14
2024-01-15T17:18:17.138Z,3.13
2024-01-15T17:21:22.630Z,3.13
2024-01-15T17:25:04.416Z,3.28
2024-01-15T17:28:17.685Z,3.25
2024-01-15T17:31:19.857Z,3.17
2024-01-15T17:34:16.213Z,3.24
2024-01-15T17:40:43.946Z,3.10
2024-01-15T17:44:02.745Z,2.93
2024-01-15T17:47:11.717Z,3.20
2024-01-15T17:53:46.492Z,3.15
2024-01-15T18:00:11.411Z,3.49
2024-01-15T18:03:14.861Z,3.51
2024-01-15T18:09:38.216Z,3.32
2024-01-15T18:12:44.026Z,3.42
2024-01-15T18:15:55.718Z,3.42
2024-01-15T18:19:07.523Z,3.43
2024-01-15T18:22:51.461Z,3.46
2024-01-15T18:25:53.434Z,3.35
2024-01-15T18:28:47.837Z,3.57
2024-01-15T18:35:10.181Z,3.66
2024-01-15T18:38:02.008Z,3.40
2024-01-15T18:40:55.436Z,3.46
2024-01-15T18:47:34.343Z,3.47
2024-01-15T18:50:37.283Z,3.41
2024-01-15T18:53:31.115Z,3.54
2024-01-15T18:56:28.210Z,3.74
2024-01-15T18:59:37.765Z,3.54
2024-01-15T19:02:54.897Z,3.51
2024-01-15T19:05:59.728Z,3.36
2024-01-15T19:09:03.207Z,3.25
2024-01-15T19:12:08.751Z,3.35
2024-01-15T19:15:10.463Z,2.85
2024-01-15T19:22:08.858Z,2.88
2024-01-15T19:25:27.634Z,2.89
2024-01-15T19:28:41.276Z,2.75
2024-01-15T19:32:05.159Z,2.70
2024-01-15T19:35:16.689Z,2.88
2024-01-15T19:41:38.455Z,2.85
2024-01-15T19:44:56.860Z,2.72
2024-01-15T19:51:13.966Z,2.61
2024-01-15T19:54:42.248Z,2.58
2024-01-15T19:57:46.925Z,2.47
2024-01-15T20:00:39.251Z,2.74
2024-01-15T20:03:45.644Z,2.61
2024-01-15T20:06:53.236Z,2.59
2024-01-15T20:10:06.603Z,2.63
2024-01-15T20:13:06.983Z,2.58
2024-01-15T20:16:32.862Z,2.46
2024-01-15T20:19:23.437Z,2.61
2024-01-15T20:22:32.438Z,2.42
2024-01-15T20:26:04.228Z,2.43
2024-01-15T20:29:21.089Z,2.36
2024-01-15T20:32:41.457Z,2.41
2024-01-15T20:35:47.150Z,2.36
2024-01-15T20:39:04.050Z,2.19
2024-01-15T20:42:10.238Z,2.15
2024-01-15T20:45:34.248Z,2.07
2024-01-15T20:48:57.103Z,2.14
2024-01-15T20:52:15.883Z,2.10
2024-01-15T20:55:17.563Z,2.06
2024-01-15T20:58:15.545Z,1.87
2024-01-15T21:01:40.300Z,2.00
2024-01-15T21:05:10.383Z,1.98
2024-01-15T21:08:36.019Z,2.06
2024-01-15T21:15:07.987Z,1.82
2024-01-15T21:18:28.651Z,1.89
2024-01-15T21:21:45.596Z,1.88
2024-01-15T21:25:01.315Z,1.77
2024-01-15T21:28:06.595Z,1.85
2024-01-15T21:31:29.248Z,1.81
2024-01-15T21:34:35.727Z,1.82
2024-01-15T21:37:36.436Z,1.77
2024-01-15T21:40:33.796Z,1.72
2024-01-15T21:43:38.838Z,1.89
2024-01-15T21:46:56.009Z,1.73
2024-01-15T21:50:09.572Z,1.90
2024-01-15T21:53:20.197Z,1.67
2024-01-15T21:56:40.442Z,1.67
2024-01-15T22:00:16.644Z,1.90
2024-01-15T22:03:37.286Z,1.90
2024-01-15T22:06:46.810Z,1.92
2024-01-15T22:10:05.337Z,1.95
2024-01-15T22:13:01.851Z,2.08
2024-01-15T22:16:12.048Z,2.09
2024-01-15T22:19:34.428Z,2.08
2024-01-15T22:29:38.978Z,1.97
2024-01-15T22:32:53.330Z,1.92
2024-01-15T22:35:49.753Z,1.74
2024-01-15T22:42:35.697Z,1.76
2024-01-15T22:45:46.566Z,1.73
2024-01-15T22:48:52.539Z,1.62
2024-01-15T22:51:44.849Z,1.79
2024-01-15T22:54:59.139Z,1.79
2024-01-15T23:01:41.678Z,1.68
2024-01-15T23:04:51.959Z,1.73
2024-01-15T23:07:43.244Z,1.96
2024-01-15T23:10:53.839Z,1.72
2024-01-15T23:13:49.786Z,1.75
2024-01-15T23:16:46.552Z,1.78
2024-01-15T23:20:28.773Z,1.77
2024-01-15T23:23:51.464Z,1.84
2024-01-15T23:26:44.091Z,1.62
2024-01-15T23:29:44.112Z,1.70
2024-01-15T23:36:18.786Z,1.75
2024-01-15T23:43:23.077Z,1.46
2024-01-15T23:46:29.008Z,1.80
2024-01-15T23:49:23.642Z,1.47
2024-01-15T23:52:48.676Z,1.54
2024-01-15T23:55:58.967Z,1.48
2024-01-15T23:58:59.757Z,1.60
